Lily Bay Township, Maine
Current Conditions -  °F | °C
As of 4:06 PM on Thursday 23 Oct 2014 (Local Time) from KMLT Reporting Station
Moderate Rain Moderate Rain  
Wind Chill: 42°   Ceiling: 1800
Heat Index: 47°   Visibility: 1.5mi
Dew Point: 45°   Wind: 12mph
Humidity: 93%   Direction: 40°NE
Pressure: 29.94"   Gusts: NA
Location:  45.7313°N, 69.33°W
Report Text: KMLT 232006Z AUTO 04010KT 1 1/2SM RA BR FEW008 OVC018 08/07 A2994 RMK AO2 P0002 T00830072
Loading
Personal Weather Stations






























Interactive Weather Map
Tropical Storm Tracking
New forecast layout! Learn more

10-Day Weather Forecast

Advertisements
Track Severe Weather on mobile